HKJKHTMW

Guest
Details From HKJK - Nairobi Jomo Kanyatta Intl
To HTMW - MWANZA
Flight Number -
Tags generated
Created
Modified
Stats Distance 324 nm / 599 km
Max Altitude 22,800 ft / 6,949 m
Waypoints 6
Social Downloads 1
Likes 0
Share VATSIM

Download

Looking for another format? Having issues loading an existing format? Contact us
Advertisement - Login to hide

Notes

Basic altitude profile: - Ascent Rate: 1500ft/min - Ascent Speed: 250kts - Cruise Altitude: 28000ft - Cruise Speed: 420kts - Descent Rate: 1500ft/min - Descent Speed: 250kts Options: - Use NATs: yes - Use PACOTS: no - Use low airways: yes - Use high airways: no

Route

HKJK ODLAM A609 ALKON LABAT HTMW

ID Type Via Altitude Latitude Longitude Leg Dist Tot Dist Heading (true) Name
O HKJK APT - 0 ft / 0 m -1.31707˚ 36.93076˚ - 0 nm - Nairobi Jomo Kanyatta Intl
ODLAM FIX - 22,800 ft / 6,949 m -0.98596˚ 35.91748˚ 64 nm 64 nm 288° / 288° -
MELMO FIX A609 (AWY-LO) 14,500 ft / 4,420 m -0.60265˚ 34.58411˚ 83 nm 147 nm 286° / 286° -
ALKON FIX A609 (AWY-LO) 14,500 ft / 4,420 m -0.43599˚ 33.96743˚ 38 nm 185 nm 285° / 285° -
LABAT FIX - 18,700 ft / 5,700 m -1.00266˚ 33.45875˚ 45 nm 231 nm 222° / 222° -
O HTMW APT - 0 ft / 0 m -2.44448˚ 32.93266˚ 92 nm 323 nm 200° / 200° MWANZA

Altitude Profile

Advertisement - Login to hide

Weather


0- 5 10 15 20 25 30 35+ Temperature / ° C

Clouds and Precipitation
Forecast for 2017-12-11 18:00 UTC. Updated 3 minutes ago

Ground ~20,000 ft ~40,000 ft Winds

HKJK

Details ICAO HKJK (NBO)
Name Nairobi Jomo Kanyatta Intl
Region Kenya
Timezone Africa/Nairobi (UTC+3.0)
Stats Elevation 5,330 ft / 1,625 m (AMSL)
Location -1.317073° 36.930757°
Runways 1
Magnetic Variation 0.575° E

METAR

HKJK 111500Z 07011KT 9999 FEW026 22/12 Q1020

Decode

TAF

TAF HKJK 111100Z 1112/1218 05010KT 9999 -SHRA FEW028 SCT240 BECMG 1120/1123 36005KT CAVOK BECMG 1208/1211 05010KT 9999 FEW027 TEMPO 1212/1218 FEW028 SCT240

Decode

Departure Runways

ID Width Length Bearing (true) Bearing (mag) Surface Threshold Offset Overrun Length
06 148 ft / 45 m 13,215 ft / 4,028 m 53.90° 53.32° Asphalt 0 ft / 0 m 194 ft / 59 m
24 148 ft / 45 m 13,215 ft / 4,028 m 233.90° 233.32° Asphalt 0 ft / 0 m 197 ft / 60 m

HTMW

Details ICAO HTMW (MWZ)
Name MWANZA
Region Tanzania
Timezone Africa/Dar_es_Salaam (UTC+3.0)
Stats Elevation 3,763 ft / 1,147 m (AMSL)
Location -2.444485° 32.932665°
Runways 1
Magnetic Variation 0.866° E

METAR

HTMW 111500Z 28008KT 9999 FEW025 FEW026CB SCT280 26/19 Q1014 NOSIG

Decode

TAF

Not found

Destination Runways

ID Width Length Bearing (true) Bearing (mag) Surface Threshold Offset Overrun Length
12 148 ft / 45 m 10,223 ft / 3,116 m 116.54° 115.67° Asphalt 300 ft / 91 m 615 ft / 187 m
30 148 ft / 45 m 10,223 ft / 3,116 m 296.54° 295.67° Asphalt 0 ft / 0 m 0 ft / 0 m

Popular Alternatives